C2004 PHJR-PMDY

Flight info

Callsign C2004
Flight time N/A
Altitude 12000
Route VFR WEST
Aircraft C30J/M-VGD/C

Departure

Time 2026-05-04 22:46
Airport Kalaeloa Airport (PHJR)

Arrival

Time N/A
Airport Henderson Field (PMDY)
Time Latitude Longitude Altitude Speed Heading
2026-05-04 22:12 21.30063 -158.07187 17 ft 0 kts 226°
2026-05-04 22:41 21.30060 -158.07191 17 ft 5 kts 227°
2026-05-04 22:41 21.30061 -158.07242 18 ft 9 kts 307°
2026-05-04 22:42 21.30123 -158.07292 20 ft 13 kts 326°
2026-05-04 22:42 21.30207 -158.07325 20 ft 15 kts 19°
2026-05-04 22:42 21.30289 -158.07299 22 ft 12 kts 342°
2026-05-04 22:42 21.30368 -158.07338 19 ft 7 kts
2026-05-04 22:43 21.30423 -158.07286 19 ft 16 kts 55°
2026-05-04 22:43 21.30495 -158.07177 22 ft 19 kts 53°
2026-05-04 22:43 21.30578 -158.07060 28 ft 19 kts 59°
2026-05-04 22:43 21.30655 -158.06936 28 ft 22 kts 54°
2026-05-04 22:44 21.30745 -158.06803 28 ft 23 kts 53°
2026-05-04 22:44 21.30836 -158.06663 27 ft 24 kts 54°
2026-05-04 22:44 21.30933 -158.06515 29 ft 25 kts 53°
2026-05-04 22:44 21.31036 -158.06362 27 ft 26 kts 54°
2026-05-04 22:45 21.31138 -158.06205 31 ft 25 kts 55°
2026-05-04 22:45 21.31224 -158.06070 33 ft 2 kts 305°
2026-05-04 22:45 21.31221 -158.06079 33 ft 2 kts 228°
2026-05-04 22:46 21.31127 -158.06223 31 ft 48 kts 235°
2026-05-04 22:46 21.30814 -158.06698 28 ft 110 kts 234°
2026-05-04 22:46 21.30278 -158.07501 213 ft 146 kts 236°
2026-05-04 22:46 21.29648 -158.08429 713 ft 156 kts 236°
2026-05-04 22:47 21.29017 -158.09347 1369 ft 155 kts 236°
2026-05-04 22:47 21.28579 -158.10387 1986 ft 156 kts 262°
2026-05-04 22:47 21.28523 -158.11593 2457 ft 168 kts 269°
2026-05-04 22:47 21.28493 -158.12843 3098 ft 165 kts 265°
2026-05-04 22:48 21.28363 -158.14004 3957 ft 148 kts 269°
2026-05-04 22:48 21.28791 -158.15038 4293 ft 172 kts 302°
2026-05-04 22:48 21.29508 -158.16220 4314 ft 207 kts 301°
2026-05-04 22:48 21.30341 -158.17606 4386 ft 233 kts 301°
2026-05-04 22:49 21.31238 -158.19096 4507 ft 240 kts 302°
2026-05-04 22:49 21.32336 -158.20466 4614 ft 244 kts 311°
2026-05-04 22:49 21.33431 -158.21867 4746 ft 246 kts 308°
2026-05-04 22:49 21.34138 -158.23505 4843 ft 246 kts 276°
2026-05-04 22:50 21.33840 -158.25300 4868 ft 251 kts 242°
2026-05-04 22:50 21.32726 -158.26768 4878 ft 256 kts 230°
2026-05-04 22:50 21.31705 -158.28339 4872 ft 259 kts 243°
2026-05-04 22:50 21.31033 -158.30142 4870 ft 262 kts 254°
2026-05-04 22:51 21.30616 -158.32045 4870 ft 263 kts 260°
2026-05-04 22:51 21.30356 -158.33960 4864 ft 255 kts 264°
2026-05-04 22:51 21.30189 -158.35864 4872 ft 259 kts 266°
2026-05-04 22:51 21.30073 -158.37811 4871 ft 263 kts 267°
2026-05-04 22:52 21.29990 -158.39766 4869 ft 262 kts 268°
2026-05-04 22:52 21.29927 -158.41719 4868 ft 262 kts 268°
2026-05-04 22:52 21.29874 -158.43670 4867 ft 262 kts 269°
2026-05-04 22:52 21.29829 -158.45623 4869 ft 262 kts 269°
2026-05-04 22:53 21.29831 -158.47574 4866 ft 262 kts 276°
2026-05-04 22:53 21.30261 -158.49441 4869 ft 263 kts 291°
2026-05-04 22:53 21.31110 -158.51207 4871 ft 263 kts 299°
2026-05-04 22:53 21.32039 -158.52898 4887 ft 264 kts 300°
2026-05-04 22:54 21.32983 -158.54575 4858 ft 262 kts 300°
2026-05-04 22:54 21.33907 -158.56175 5296 ft 251 kts 301°
2026-05-04 22:54 21.34834 -158.57773 5794 ft 253 kts 301°
2026-05-04 22:54 21.35767 -158.59375 6291 ft 254 kts 301°
2026-05-04 22:55 21.36707 -158.60984 6784 ft 255 kts 301°
2026-05-04 22:55 21.37654 -158.62606 7294 ft 256 kts 301°
2026-05-04 22:55 21.38603 -158.64227 7776 ft 258 kts 301°
2026-05-04 22:55 21.39561 -158.65864 8286 ft 259 kts 301°
2026-05-04 22:56 21.40521 -158.67507 8778 ft 260 kts 301°
2026-05-04 22:56 21.41485 -158.69154 9273 ft 261 kts 301°
2026-05-04 22:56 21.42450 -158.70806 9764 ft 262 kts 301°
2026-05-04 22:56 21.43420 -158.72465 10255 ft 262 kts 301°
2026-05-04 22:57 21.44387 -158.74120 10737 ft 262 kts 301°
2026-05-04 22:57 21.45357 -158.75783 11218 ft 262 kts 301°
2026-05-04 22:57 21.46326 -158.77443 11684 ft 263 kts 301°
2026-05-04 22:57 21.47315 -158.79139 11870 ft 274 kts 301°
2026-05-04 22:58 21.48351 -158.80918 11899 ft 287 kts 301°
2026-05-04 22:58 21.49431 -158.82770 11881 ft 298 kts 301°
2026-05-04 22:58 21.50548 -158.84687 11881 ft 306 kts 301°
2026-05-04 22:58 21.51690 -158.86649 11882 ft 313 kts 301°
2026-05-04 22:59 21.52851 -158.88648 11865 ft 318 kts 301°
2026-05-04 22:59 21.53627 -158.89982 11851 ft 320 kts 301°
2026-05-04 22:59 21.55217 -158.92709 11845 ft 324 kts 301°
2026-05-04 22:59 21.56414 -158.94765 11844 ft 325 kts 301°
2026-05-04 23:00 21.57616 -158.96828 11844 ft 326 kts 301°
2026-05-04 23:00 21.58819 -158.98894 11845 ft 327 kts 301°
2026-05-04 23:00 21.59620 -159.00270 11847 ft 327 kts 301°
2026-05-04 23:00 21.60825 -159.02342 11846 ft 328 kts 301°
2026-05-04 23:01 21.62034 -159.04421 11844 ft 328 kts 301°
2026-05-04 23:01 21.63245 -159.06505 11846 ft 329 kts 301°
2026-05-04 23:01 21.64456 -159.08587 11842 ft 329 kts 301°
2026-05-04 23:01 21.65666 -159.10670 11844 ft 329 kts 301°
2026-05-04 23:02 21.66877 -159.12756 11845 ft 329 kts 301°
2026-05-04 23:02 21.68088 -159.14843 11843 ft 329 kts 301°
2026-05-04 23:02 21.69298 -159.16930 11845 ft 329 kts 301°
2026-05-04 23:02 21.70504 -159.19022 11843 ft 329 kts 301°
2026-05-04 23:03 21.71714 -159.21117 11846 ft 329 kts 301°
2026-05-04 23:03 21.72921 -159.23206 11845 ft 329 kts 301°
2026-05-04 23:03 21.74122 -159.25286 11847 ft 328 kts 301°
2026-05-04 23:03 21.75329 -159.27379 11843 ft 329 kts 301°
2026-05-04 23:04 21.76534 -159.29469 11846 ft 329 kts 301°
2026-05-04 23:04 21.77740 -159.31560 11845 ft 329 kts 301°
2026-05-04 23:04 21.78945 -159.33651 11843 ft 329 kts 301°
2026-05-04 23:04 21.80152 -159.35744 11842 ft 329 kts 301°
2026-05-04 23:05 21.81358 -159.37834 11845 ft 329 kts 301°
2026-05-04 23:05 21.82551 -159.39903 11848 ft 329 kts 301°
2026-05-04 23:05 21.83760 -159.42000 11842 ft 330 kts 301°
2026-05-04 23:05 21.84969 -159.44098 11846 ft 330 kts 301°
2026-05-04 23:06 21.86180 -159.46203 11845 ft 331 kts 301°
2026-05-04 23:06 21.87410 -159.48338 11840 ft 331 kts 301°
2026-05-04 23:06 21.88603 -159.50413 11847 ft 330 kts 300°
2026-05-04 23:06 21.89679 -159.52631 11844 ft 330 kts 294°
2026-05-04 23:07 21.90543 -159.54910 11843 ft 329 kts 289°
2026-05-04 23:07 21.91293 -159.57208 11844 ft 329 kts 288°
2026-05-04 23:07 21.92027 -159.59542 11844 ft 329 kts 288°
2026-05-04 23:07 21.92751 -159.61885 11845 ft 329 kts 288°
2026-05-04 23:08 21.93466 -159.64226 11844 ft 329 kts 288°
2026-05-04 23:08 21.94179 -159.66572 11841 ft 329 kts 288°
2026-05-04 23:08 21.94890 -159.68914 11844 ft 329 kts 288°
2026-05-04 23:08 21.95600 -159.71260 11840 ft 329 kts 288°
2026-05-04 23:09 21.96308 -159.73606 11843 ft 329 kts 288°
2026-05-04 23:09 21.97016 -159.75947 11845 ft 329 kts 288°
2026-05-04 23:09 21.97722 -159.78288 11844 ft 329 kts 287°
2026-05-04 23:09 21.98429 -159.80630 11837 ft 329 kts 287°
2026-05-04 23:10 21.99134 -159.82970 11843 ft 328 kts 287°
2026-05-04 23:10 21.99837 -159.85307 11845 ft 328 kts 287°
2026-05-04 23:10 22.00543 -159.87652 11851 ft 328 kts 287°
2026-05-04 23:10 22.01245 -159.89990 11842 ft 329 kts 287°
2026-05-04 23:11 22.01950 -159.92334 11841 ft 328 kts 287°
2026-05-04 23:11 22.02653 -159.94672 11845 ft 328 kts 287°
2026-05-04 23:11 22.03355 -159.97010 11845 ft 328 kts 287°
2026-05-04 23:11 22.04057 -159.99349 11843 ft 328 kts 287°
2026-05-04 23:12 22.04758 -160.01688 11844 ft 328 kts 287°
2026-05-04 23:12 22.05461 -160.04032 11847 ft 329 kts 287°
2026-05-04 23:12 22.06162 -160.06377 11845 ft 329 kts 287°
2026-05-04 23:12 22.06864 -160.08717 11843 ft 328 kts 287°
2026-05-04 23:13 22.07565 -160.11062 11846 ft 328 kts 287°
2026-05-04 23:13 22.08264 -160.13402 11844 ft 328 kts 287°
2026-05-04 23:13 22.08966 -160.15748 11843 ft 328 kts 287°
2026-05-04 23:13 22.09664 -160.18086 11844 ft 328 kts 287°
2026-05-04 23:14 22.10362 -160.20426 11845 ft 328 kts 287°
2026-05-04 23:14 22.11062 -160.22772 11845 ft 328 kts 287°
2026-05-04 23:14 22.11759 -160.25111 11844 ft 328 kts 287°
2026-05-04 23:14 22.12456 -160.27453 11845 ft 328 kts 287°
2026-05-04 23:15 22.13155 -160.29796 11846 ft 328 kts 287°
2026-05-04 23:15 22.13850 -160.32132 11845 ft 328 kts 287°
2026-05-04 23:15 22.14546 -160.34475 11845 ft 328 kts 287°
2026-05-04 23:15 22.15243 -160.36818 11843 ft 328 kts 287°
2026-05-04 23:16 22.15939 -160.39161 11845 ft 328 kts 287°
2026-05-04 23:16 22.16634 -160.41504 11844 ft 328 kts 287°
2026-05-04 23:16 22.17331 -160.43852 11844 ft 328 kts 287°
2026-05-04 23:16 22.18026 -160.46198 11844 ft 328 kts 287°
2026-05-04 23:17 22.18722 -160.48544 11844 ft 328 kts 287°
2026-05-04 23:17 22.19418 -160.50893 11843 ft 329 kts 287°
2026-05-04 23:17 22.20111 -160.53236 11846 ft 328 kts 287°
2026-05-04 23:17 22.20806 -160.55586 11840 ft 329 kts 287°
2026-05-04 23:18 22.21501 -160.57938 11845 ft 328 kts 287°
2026-05-04 23:18 22.22192 -160.60280 11844 ft 328 kts 287°
2026-05-04 23:18 22.22877 -160.62601 11845 ft 329 kts 287°
2026-05-04 23:18 22.23567 -160.64937 11836 ft 323 kts 287°
2026-05-04 23:19 22.24250 -160.67252 11842 ft 324 kts 287°
2026-05-04 23:19 22.24934 -160.69571 11844 ft 324 kts 287°
2026-05-04 23:19 22.25608 -160.71861 11838 ft 315 kts 287°
2026-05-04 23:19 22.25971 -160.73091 11835 ft 309 kts 287°
2026-05-04 23:20 22.26468 -160.74780 11838 ft 299 kts 287°
2026-05-04 23:20 22.27084 -160.76873 11842 ft 287 kts 287°
2026-05-04 23:20 22.27679 -160.78896 11842 ft 279 kts 287°
2026-05-04 23:21 22.28260 -160.80874 11841 ft 274 kts 287°
2026-05-04 23:21 22.28834 -160.82825 11841 ft 271 kts 287°
2026-05-04 23:21 22.29401 -160.84758 11846 ft 269 kts 287°
2026-05-04 23:21 22.29964 -160.86678 11840 ft 268 kts 287°
2026-05-04 23:22 22.30524 -160.88588 11840 ft 266 kts 287°
2026-05-04 23:22 22.31080 -160.90492 11843 ft 266 kts 287°
2026-05-04 23:22 22.31637 -160.92390 11845 ft 265 kts 287°
2026-05-04 23:22 22.32193 -160.94288 11841 ft 265 kts 287°
2026-05-04 23:23 22.32749 -160.96188 11845 ft 265 kts 287°
2026-05-04 23:23 22.33304 -160.98085 11845 ft 265 kts 287°
2026-05-04 23:23 22.33858 -160.99980 11848 ft 265 kts 287°
2026-05-04 23:23 22.34411 -161.01872 11843 ft 264 kts 287°
2026-05-04 23:24 22.34966 -161.03771 11843 ft 264 kts 287°
2026-05-04 23:24 22.35519 -161.05662 11846 ft 265 kts 287°
2026-05-04 23:24 22.36072 -161.07557 11845 ft 265 kts 287°
2026-05-04 23:24 22.36624 -161.09453 11841 ft 265 kts 287°
2026-05-04 23:25 22.37178 -161.11351 11844 ft 264 kts 287°
2026-05-04 23:25 22.37730 -161.13244 11843 ft 263 kts 287°
2026-05-04 23:25 22.38275 -161.15112 11843 ft 259 kts 287°
2026-05-04 23:25 22.38813 -161.16962 11842 ft 259 kts 287°
2026-05-04 23:26 22.39357 -161.18830 11847 ft 262 kts 287°
2026-05-04 23:26 22.39897 -161.20691 11848 ft 264 kts 287°
2026-05-04 23:26 22.40450 -161.22591 11847 ft 266 kts 287°
2026-05-04 23:26 22.41004 -161.24497 11845 ft 267 kts 287°
2026-05-04 23:27 22.41562 -161.26417 11847 ft 270 kts 287°
2026-05-04 23:27 22.42134 -161.28389 11853 ft 282 kts 287°
2026-05-04 23:27 22.42735 -161.30460 11855 ft 295 kts 287°
2026-05-04 23:27 22.43357 -161.32607 11850 ft 305 kts 287°
2026-05-04 23:28 22.43999 -161.34822 11845 ft 312 kts 287°
2026-05-04 23:28 22.44652 -161.37074 11847 ft 317 kts 287°
2026-05-04 23:28 22.45314 -161.39359 11848 ft 320 kts 287°
2026-05-04 23:28 22.45980 -161.41666 11845 ft 323 kts 287°
2026-05-04 23:29 22.46652 -161.43987 11846 ft 324 kts 287°
2026-05-04 23:29 22.47327 -161.46322 11846 ft 326 kts 287°
2026-05-04 23:29 22.48003 -161.48661 11848 ft 327 kts 287°
2026-05-04 23:29 22.48681 -161.51008 11844 ft 327 kts 287°
2026-05-04 23:30 22.49358 -161.53357 11844 ft 328 kts 287°
2026-05-04 23:30 22.50036 -161.55708 11846 ft 328 kts 287°
2026-05-04 23:30 22.50715 -161.58064 11851 ft 328 kts 287°
2026-05-04 23:30 22.51394 -161.60420 11840 ft 329 kts 287°
2026-05-04 23:31 22.52074 -161.62784 11842 ft 329 kts 287°
2026-05-04 23:31 22.52754 -161.65147 11847 ft 329 kts 287°
2026-05-04 23:31 22.53431 -161.67502 11845 ft 329 kts 287°
2026-05-04 23:31 22.54110 -161.69868 11842 ft 329 kts 287°
2026-05-04 23:32 22.54789 -161.72234 11844 ft 329 kts 287°
2026-05-04 23:32 22.55467 -161.74595 11845 ft 329 kts 287°
2026-05-04 23:32 22.56146 -161.76961 11847 ft 329 kts 287°
2026-05-04 23:32 22.56824 -161.79327 11839 ft 329 kts 287°
2026-05-04 23:33 22.57501 -161.81691 11845 ft 329 kts 287°
2026-05-04 23:33 22.58179 -161.84059 11842 ft 329 kts 287°
2026-05-04 23:33 22.58856 -161.86424 11842 ft 329 kts 287°
2026-05-04 23:33 22.59531 -161.88786 11844 ft 329 kts 287°
2026-05-04 23:34 22.60206 -161.91148 11843 ft 329 kts 287°
2026-05-04 23:34 22.60881 -161.93512 11843 ft 329 kts 287°
2026-05-04 23:34 22.61546 -161.95844 11845 ft 329 kts 287°
2026-05-04 23:34 22.62229 -161.98239 11846 ft 329 kts 287°
2026-05-04 23:35 22.62903 -162.00605 11843 ft 329 kts 287°
2026-05-04 23:35 22.63568 -162.02936 11846 ft 329 kts 287°
2026-05-04 23:35 22.64240 -162.05298 11844 ft 329 kts 287°
2026-05-04 23:35 22.64913 -162.07666 11844 ft 329 kts 287°
2026-05-04 23:36 22.65585 -162.10028 11844 ft 329 kts 287°
2026-05-04 23:36 22.66258 -162.12397 11847 ft 329 kts 287°
2026-05-04 23:36 22.66930 -162.14761 11843 ft 328 kts 287°
2026-05-04 23:36 22.67600 -162.17124 11845 ft 328 kts 287°
2026-05-04 23:37 22.68270 -162.19486 11843 ft 328 kts 287°
2026-05-04 23:37 22.68940 -162.21850 11843 ft 329 kts 287°
2026-05-04 23:37 22.69612 -162.24220 11845 ft 329 kts 287°
2026-05-04 23:37 22.70282 -162.26584 11843 ft 329 kts 287°
2026-05-04 23:38 22.70951 -162.28954 11843 ft 329 kts 287°
2026-05-04 23:38 22.71620 -162.31323 11843 ft 329 kts 287°
2026-05-04 23:38 22.72290 -162.33694 11843 ft 329 kts 287°
2026-05-04 23:38 22.72959 -162.36063 11845 ft 329 kts 287°
2026-05-04 23:39 22.73627 -162.38430 11842 ft 329 kts 287°
2026-05-04 23:39 22.74295 -162.40802 11845 ft 329 kts 287°
2026-05-04 23:39 22.74963 -162.43172 11844 ft 329 kts 287°
2026-05-04 23:39 22.75631 -162.45542 11844 ft 329 kts 287°
2026-05-04 23:40 22.76299 -162.47914 11845 ft 329 kts 287°
2026-05-04 23:40 22.76966 -162.50284 11843 ft 329 kts 287°
2026-05-04 23:40 22.77633 -162.52657 11845 ft 329 kts 287°
2026-05-04 23:40 22.78299 -162.55026 11844 ft 329 kts 286°
2026-05-04 23:41 22.78965 -162.57399 11844 ft 329 kts 286°
2026-05-04 23:41 22.79631 -162.59771 11844 ft 329 kts 286°
2026-05-04 23:41 22.80297 -162.62143 11847 ft 329 kts 287°
2026-05-04 23:41 22.80976 -162.64515 11844 ft 329 kts 287°
2026-05-04 23:42 22.81673 -162.66877 11845 ft 329 kts 287°
2026-05-04 23:42 22.82378 -162.69229 11847 ft 329 kts 288°
2026-05-04 23:42 22.83081 -162.71558 11844 ft 329 kts 288°
2026-05-04 23:42 22.83796 -162.73917 11846 ft 329 kts 288°
2026-05-04 23:43 22.84513 -162.76271 11848 ft 329 kts 288°
2026-05-04 23:43 22.85229 -162.78628 11843 ft 329 kts 288°
2026-05-04 23:43 22.85942 -162.80982 11847 ft 329 kts 288°
2026-05-04 23:43 22.86656 -162.83336 11843 ft 329 kts 288°
2026-05-04 23:44 22.87372 -162.85698 11843 ft 329 kts 288°
2026-05-04 23:44 22.88086 -162.88055 11847 ft 329 kts 288°
2026-05-04 23:44 22.88799 -162.90413 11845 ft 329 kts 288°
2026-05-04 23:44 22.89512 -162.92769 11844 ft 329 kts 288°
2026-05-04 23:45 22.90225 -162.95127 11844 ft 329 kts 288°
2026-05-04 23:45 22.90937 -162.97484 11845 ft 329 kts 288°
2026-05-04 23:45 22.91649 -162.99843 11843 ft 329 kts 288°
2026-05-04 23:45 22.92361 -163.02203 11844 ft 329 kts 288°
2026-05-04 23:46 22.93071 -163.04560 11844 ft 329 kts 288°
2026-05-04 23:46 22.93782 -163.06920 11842 ft 329 kts 288°
2026-05-04 23:46 22.94491 -163.09279 11842 ft 329 kts 288°
2026-05-04 23:46 22.95201 -163.11638 11845 ft 329 kts 288°
2026-05-04 23:47 22.95911 -163.14001 11845 ft 329 kts 288°
2026-05-04 23:47 22.96620 -163.16362 11844 ft 329 kts 288°
2026-05-04 23:47 22.97328 -163.18720 11846 ft 329 kts 288°
2026-05-04 23:47 22.98038 -163.21085 11844 ft 329 kts 287°
2026-05-04 23:48 22.98745 -163.23446 11845 ft 329 kts 287°
2026-05-04 23:48 22.99454 -163.25810 11843 ft 329 kts 287°
2026-05-04 23:48 23.00160 -163.28168 11845 ft 329 kts 287°
2026-05-04 23:48 23.00628 -163.29735 11846 ft 329 kts 287°
2026-05-04 23:49 23.01332 -163.32094 11842 ft 329 kts 287°
2026-05-04 23:49 23.02039 -163.34459 11846 ft 329 kts 287°
2026-05-04 23:49 23.02743 -163.36819 11842 ft 329 kts 287°
2026-05-04 23:49 23.03449 -163.39184 11844 ft 329 kts 287°
2026-05-04 23:50 23.04154 -163.41551 11846 ft 329 kts 287°
2026-05-04 23:50 23.05087 -163.44683 11844 ft 329 kts 287°
2026-05-04 23:50 23.05564 -163.46281 11844 ft 329 kts 287°
2026-05-04 23:50 23.06266 -163.48639 11843 ft 329 kts 287°
2026-05-04 23:51 23.06969 -163.51003 11844 ft 329 kts 287°
2026-05-04 23:51 23.07672 -163.53364 11843 ft 329 kts 287°
2026-05-04 23:51 23.08374 -163.55730 11845 ft 329 kts 287°
2026-05-04 23:51 23.09075 -163.58097 11845 ft 329 kts 287°
2026-05-04 23:52 23.09778 -163.60466 11845 ft 329 kts 287°
2026-05-04 23:52 23.10479 -163.62832 11845 ft 329 kts 287°
2026-05-04 23:52 23.11171 -163.65168 11846 ft 329 kts 287°
2026-05-04 23:52 23.11872 -163.67535 11845 ft 329 kts 287°
2026-05-04 23:53 23.12572 -163.69902 11841 ft 329 kts 287°
2026-05-04 23:53 23.13271 -163.72265 11844 ft 329 kts 287°
2026-05-04 23:53 23.13972 -163.74635 11846 ft 329 kts 287°
2026-05-04 23:53 23.14680 -163.77035 11849 ft 330 kts 287°
2026-05-04 23:54 23.15380 -163.79407 11837 ft 329 kts 287°
2026-05-04 23:54 23.16069 -163.81745 11844 ft 329 kts 287°
2026-05-04 23:54 23.16777 -163.84145 11845 ft 329 kts 287°
2026-05-04 23:54 23.17473 -163.86509 11844 ft 329 kts 287°
2026-05-04 23:55 23.18170 -163.88878 11846 ft 329 kts 287°
2026-05-04 23:55 23.18857 -163.91212 11846 ft 329 kts 287°
2026-05-04 23:55 23.20250 -163.95955 11845 ft 329 kts 287°
2026-05-04 23:56 23.20946 -163.98324 11841 ft 329 kts 287°
2026-05-04 23:56 23.21641 -164.00692 11844 ft 329 kts 287°
2026-05-04 23:56 23.22334 -164.03062 11845 ft 329 kts 287°
2026-05-04 23:56 23.23029 -164.05434 11843 ft 329 kts 287°
2026-05-04 23:57 23.23722 -164.07803 11844 ft 329 kts 287°
2026-05-04 23:57 23.24417 -164.10175 11843 ft 329 kts 287°
2026-05-04 23:57 23.25111 -164.12548 11843 ft 329 kts 287°
2026-05-04 23:57 23.25804 -164.14921 11841 ft 329 kts 287°
2026-05-04 23:58 23.26497 -164.17296 11845 ft 329 kts 287°
2026-05-04 23:58 23.27190 -164.19669 11848 ft 330 kts 287°
2026-05-04 23:58 23.27886 -164.22050 11838 ft 330 kts 287°
2026-05-04 23:58 23.28580 -164.24431 11842 ft 330 kts 287°
2026-05-04 23:59 23.29273 -164.26811 11844 ft 330 kts 287°
2026-05-04 23:59 23.29965 -164.29190 11843 ft 330 kts 287°
2026-05-04 23:59 23.30657 -164.31569 11842 ft 330 kts 287°
2026-05-04 23:59 23.31348 -164.33947 11845 ft 330 kts 287°
2026-05-05 00:00 23.32040 -164.36325 11843 ft 329 kts 287°
2026-05-05 00:00 23.32497 -164.37900 11844 ft 329 kts 287°
2026-05-05 00:00 23.33418 -164.41075 11844 ft 329 kts 287°
2026-05-05 00:00 23.34107 -164.43449 11843 ft 329 kts 287°
2026-05-05 00:01 23.34795 -164.45824 11845 ft 329 kts 287°
2026-05-05 00:01 23.35482 -164.48195 11845 ft 329 kts 287°
2026-05-05 00:01 23.36171 -164.50574 11844 ft 329 kts 287°
2026-05-05 00:01 23.36857 -164.52946 11843 ft 329 kts 287°
2026-05-05 00:02 23.37544 -164.55321 11842 ft 329 kts 287°
2026-05-05 00:02 23.38231 -164.57702 11844 ft 329 kts 287°
2026-05-05 00:02 23.38916 -164.60076 11843 ft 329 kts 287°
2026-05-05 00:02 23.39603 -164.62455 11845 ft 329 kts 287°
2026-05-05 00:03 23.40287 -164.64829 11843 ft 329 kts 287°
2026-05-05 00:03 23.40971 -164.67203 11843 ft 329 kts 287°
2026-05-05 00:03 23.41656 -164.69581 11842 ft 329 kts 287°
2026-05-05 00:03 23.42340 -164.71956 11844 ft 329 kts 287°
2026-05-05 00:04 23.43022 -164.74332 11847 ft 329 kts 287°
2026-05-05 00:04 23.43707 -164.76714 11844 ft 329 kts 287°
2026-05-05 00:04 23.44390 -164.79092 11847 ft 329 kts 287°
2026-05-05 00:04 23.45074 -164.81471 11845 ft 329 kts 287°
2026-05-05 00:05 23.45757 -164.83852 11844 ft 329 kts 287°
2026-05-05 00:05 23.46437 -164.86227 11853 ft 330 kts 287°
2026-05-05 00:05 23.47123 -164.88618 11843 ft 330 kts 287°
2026-05-05 00:05 23.47805 -164.91001 11837 ft 330 kts 287°
2026-05-05 00:06 23.48488 -164.93388 11844 ft 330 kts 287°
2026-05-05 00:06 23.49168 -164.95768 11843 ft 329 kts 287°
2026-05-05 00:06 23.49841 -164.98119 11845 ft 329 kts 287°
2026-05-05 00:06 23.50521 -165.00502 11846 ft 329 kts 287°
2026-05-05 00:07 23.51202 -165.02886 11846 ft 329 kts 287°
2026-05-05 00:07 23.51879 -165.05264 11844 ft 329 kts 287°
2026-05-05 00:07 23.52568 -165.07677 11847 ft 329 kts 287°
2026-05-05 00:07 23.53246 -165.10060 11843 ft 329 kts 287°
2026-05-05 00:08 23.53926 -165.12448 11847 ft 329 kts 287°
2026-05-05 00:08 23.54595 -165.14797 11845 ft 329 kts 287°
2026-05-05 00:08 23.55283 -165.17216 11845 ft 330 kts 287°
2026-05-05 00:08 23.55959 -165.19597 11846 ft 329 kts 287°
2026-05-05 00:09 23.56636 -165.21982 11843 ft 329 kts 287°
2026-05-05 00:09 23.57312 -165.24364 11851 ft 329 kts 287°
2026-05-05 00:09 23.57988 -165.26757 11841 ft 331 kts 287°
2026-05-05 00:09 23.58658 -165.29118 11836 ft 330 kts 287°
2026-05-05 00:10 23.59335 -165.31508 11843 ft 330 kts 287°
2026-05-05 00:10 23.60011 -165.33892 11843 ft 329 kts 287°
2026-05-05 00:10 23.60686 -165.36278 11843 ft 329 kts 287°
2026-05-05 00:10 23.61362 -165.38669 11845 ft 329 kts 287°
2026-05-05 00:11 23.62034 -165.41052 11846 ft 329 kts 287°
2026-05-05 00:11 23.62708 -165.43438 11844 ft 329 kts 287°
2026-05-05 00:11 23.63390 -165.45853 11845 ft 329 kts 287°
2026-05-05 00:11 23.64054 -165.48209 11845 ft 329 kts 287°
2026-05-05 00:12 23.64726 -165.50595 11846 ft 329 kts 287°
2026-05-05 00:12 23.65397 -165.52978 11843 ft 329 kts 287°
2026-05-05 00:12 23.66069 -165.55366 11845 ft 329 kts 287°
2026-05-05 00:12 23.66741 -165.57756 11845 ft 329 kts 287°
2026-05-05 00:13 23.67412 -165.60145 11842 ft 329 kts 287°
2026-05-05 00:13 23.68082 -165.62532 11847 ft 329 kts 287°
2026-05-05 00:13 23.68753 -165.64919 11841 ft 329 kts 287°
2026-05-05 00:13 23.69422 -165.67307 11843 ft 329 kts 287°
2026-05-05 00:14 23.70091 -165.69693 11843 ft 329 kts 287°
2026-05-05 00:14 23.70759 -165.72081 11845 ft 329 kts 287°
2026-05-05 00:14 23.71427 -165.74467 11843 ft 329 kts 287°
2026-05-05 00:14 23.72094 -165.76853 11846 ft 329 kts 287°
2026-05-05 00:15 23.72763 -165.79244 11845 ft 329 kts 287°
2026-05-05 00:15 23.73430 -165.81633 11841 ft 329 kts 287°
2026-05-05 00:15 23.74098 -165.84024 11845 ft 329 kts 287°
2026-05-05 00:15 23.74765 -165.86415 11845 ft 329 kts 286°
2026-05-05 00:16 23.75431 -165.88804 11845 ft 329 kts 286°
2026-05-05 00:16 23.76096 -165.91190 11845 ft 329 kts 286°
2026-05-05 00:16 23.76763 -165.93586 11844 ft 329 kts 286°
2026-05-05 00:16 23.77426 -165.95971 11843 ft 329 kts 286°
2026-05-05 00:17 23.78092 -165.98365 11845 ft 329 kts 286°
2026-05-05 00:17 23.78758 -166.00760 11841 ft 329 kts 286°
2026-05-05 00:17 23.79421 -166.03147 11841 ft 329 kts 286°
2026-05-05 00:17 23.80083 -166.05533 11843 ft 329 kts 286°
2026-05-05 00:18 23.80747 -166.07927 11841 ft 329 kts 286°
2026-05-05 00:18 23.81408 -166.10312 11843 ft 329 kts 286°
2026-05-05 00:18 23.82070 -166.12707 11858 ft 330 kts 286°
2026-05-05 00:18 23.82735 -166.15109 11835 ft 331 kts 286°
2026-05-05 00:19 23.83400 -166.17512 11841 ft 330 kts 286°
2026-05-05 00:19 23.84064 -166.19911 11845 ft 330 kts 286°
2026-05-05 00:19 23.84718 -166.22277 11844 ft 329 kts 286°
2026-05-05 00:19 23.85378 -166.24670 11843 ft 329 kts 286°
2026-05-05 00:20 23.86043 -166.27064 11843 ft 329 kts 287°
2026-05-05 00:20 23.86859 -166.29398 11849 ft 330 kts 292°
2026-05-05 00:20 23.87801 -166.31687 11846 ft 330 kts 294°
2026-05-05 00:20 23.88774 -166.33955 11841 ft 330 kts 295°
2026-05-05 00:21 23.89762 -166.36220 11844 ft 330 kts 295°
2026-05-05 00:21 23.90757 -166.38477 11845 ft 330 kts 295°
2026-05-05 00:21 23.91758 -166.40738 11843 ft 330 kts 295°
2026-05-05 00:21 23.92758 -166.42992 11843 ft 330 kts 295°
2026-05-05 00:22 23.93758 -166.45246 11845 ft 330 kts 295°
2026-05-05 00:22 23.94762 -166.47509 11844 ft 330 kts 295°
2026-05-05 00:22 23.95763 -166.49764 11844 ft 330 kts 295°
2026-05-05 00:22 23.96765 -166.52025 11843 ft 330 kts 295°
2026-05-05 00:23 23.97766 -166.54282 11845 ft 330 kts 295°
2026-05-05 00:23 23.98766 -166.56539 11844 ft 330 kts 295°
2026-05-05 00:23 23.99764 -166.58796 11845 ft 330 kts 295°
2026-05-05 00:23 24.00765 -166.61056 11844 ft 330 kts 295°
2026-05-05 00:24 24.01762 -166.63312 11844 ft 330 kts 295°
2026-05-05 00:24 24.02761 -166.65572 11845 ft 330 kts 295°
2026-05-05 00:24 24.03759 -166.67833 11848 ft 330 kts 295°
2026-05-05 00:24 24.04755 -166.70090 11842 ft 330 kts 295°
2026-05-05 00:25 24.05750 -166.72345 11844 ft 330 kts 295°
2026-05-05 00:25 24.06748 -166.74610 11847 ft 330 kts 295°
2026-05-05 00:25 24.07744 -166.76871 11846 ft 330 kts 295°
2026-05-05 00:25 24.08740 -166.79131 11840 ft 330 kts 295°
2026-05-05 00:26 24.09737 -166.81398 11844 ft 330 kts 295°
2026-05-05 00:26 24.10731 -166.83659 11845 ft 330 kts 295°
2026-05-05 00:26 24.11727 -166.85923 11843 ft 330 kts 295°
2026-05-05 00:26 24.12719 -166.88182 11845 ft 330 kts 295°
2026-05-05 00:27 24.13714 -166.90448 11844 ft 330 kts 295°
2026-05-05 00:27 24.14707 -166.92712 11844 ft 330 kts 295°
2026-05-05 00:27 24.15698 -166.94972 11845 ft 330 kts 295°
2026-05-05 00:27 24.16690 -166.97236 11844 ft 330 kts 295°
2026-05-05 00:28 24.17682 -166.99499 11842 ft 330 kts 295°
2026-05-05 00:28 24.18675 -167.01767 11844 ft 330 kts 295°
2026-05-05 00:28 24.19666 -167.04033 11845 ft 330 kts 295°
2026-05-05 00:28 24.20642 -167.06266 11840 ft 330 kts 295°
2026-05-05 00:29 24.21645 -167.08559 11844 ft 330 kts 295°
2026-05-05 00:29 24.22622 -167.10800 11845 ft 330 kts 295°
2026-05-05 00:29 24.23624 -167.13095 11844 ft 330 kts 295°
2026-05-05 00:29 24.24614 -167.15363 11842 ft 330 kts 295°
2026-05-05 00:30 24.25601 -167.17624 11845 ft 330 kts 295°
2026-05-05 00:30 24.26577 -167.19865 11842 ft 330 kts 295°
2026-05-05 00:30 24.27564 -167.22130 11841 ft 329 kts 295°
2026-05-05 00:30 24.28535 -167.24362 11843 ft 329 kts 295°
2026-05-05 00:31 24.29533 -167.26654 11844 ft 329 kts 295°
2026-05-05 00:31 24.30508 -167.28896 11845 ft 329 kts 295°
2026-05-05 00:31 24.31493 -167.31162 11849 ft 329 kts 295°
2026-05-05 00:31 24.32479 -167.33430 11843 ft 330 kts 295°
2026-05-05 00:32 24.33465 -167.35701 11842 ft 330 kts 295°
2026-05-05 00:32 24.34449 -167.37968 11846 ft 330 kts 295°
2026-05-05 00:32 24.35434 -167.40240 11844 ft 330 kts 295°
2026-05-05 00:32 24.36418 -167.42510 11841 ft 330 kts 295°
2026-05-05 00:33 24.37403 -167.44782 11843 ft 330 kts 295°
2026-05-05 00:33 24.38387 -167.47056 11846 ft 330 kts 295°
2026-05-05 00:33 24.39368 -167.49323 11845 ft 330 kts 295°
2026-05-05 00:33 24.40353 -167.51601 11842 ft 330 kts 295°
2026-05-05 00:34 24.41335 -167.53872 11845 ft 330 kts 295°
2026-05-05 00:34 24.42318 -167.56146 11844 ft 330 kts 295°
2026-05-05 00:34 24.43333 -167.58393 11864 ft 329 kts 296°
2026-05-05 00:34 24.44316 -167.60680 11809 ft 331 kts 294°
2026-05-05 00:35 24.45278 -167.62961 11846 ft 330 kts 294°
2026-05-05 00:35 24.46250 -167.65240 11850 ft 330 kts 294°
2026-05-05 00:35 24.47227 -167.67519 11846 ft 330 kts 294°
2026-05-05 00:35 24.48207 -167.69800 11843 ft 330 kts 295°
2026-05-05 00:36 24.48855 -167.71307 11842 ft 330 kts 295°
2026-05-05 00:36 24.49834 -167.73584 11845 ft 330 kts 295°
2026-05-05 00:36 24.50814 -167.75862 11842 ft 330 kts 295°
2026-05-05 00:36 24.51794 -167.78142 11844 ft 330 kts 294°
2026-05-05 00:37 24.52772 -167.80418 11844 ft 330 kts 294°
2026-05-05 00:37 24.53752 -167.82701 11844 ft 330 kts 294°
2026-05-05 00:37 24.54728 -167.84976 11845 ft 330 kts 294°
2026-05-05 00:37 24.55707 -167.87255 11842 ft 330 kts 294°
2026-05-05 00:38 24.56684 -167.89533 11847 ft 330 kts 294°
2026-05-05 00:38 24.57662 -167.91812 11843 ft 330 kts 294°
2026-05-05 00:38 24.58639 -167.94093 11847 ft 330 kts 294°
2026-05-05 00:38 24.59614 -167.96372 11844 ft 330 kts 294°
2026-05-05 00:39 24.60591 -167.98655 11844 ft 330 kts 294°
2026-05-05 00:39 24.61566 -168.00935 11844 ft 330 kts 294°
2026-05-05 00:39 24.62540 -168.03212 11846 ft 330 kts 294°
2026-05-05 00:39 24.63516 -168.05498 11842 ft 330 kts 294°
2026-05-05 00:40 24.64490 -168.07777 11844 ft 330 kts 294°
2026-05-05 00:40 24.65465 -168.10061 11845 ft 330 kts 294°
2026-05-05 00:40 24.66438 -168.12344 11843 ft 330 kts 294°
2026-05-05 00:40 24.67411 -168.14627 11844 ft 330 kts 294°
2026-05-05 00:41 24.68383 -168.16906 11845 ft 330 kts 294°
2026-05-05 00:41 24.69357 -168.19193 11842 ft 330 kts 294°
2026-05-05 00:41 24.70330 -168.21477 11845 ft 330 kts 294°
2026-05-05 00:41 24.71302 -168.23762 11841 ft 330 kts 294°
2026-05-05 00:42 24.72272 -168.26046 11844 ft 330 kts 294°
2026-05-05 00:42 24.73245 -168.28336 11845 ft 330 kts 294°
2026-05-05 00:42 24.74217 -168.30620 11843 ft 330 kts 294°
2026-05-05 00:42 24.75175 -168.32875 11843 ft 330 kts 294°
2026-05-05 00:43 24.76145 -168.35162 11846 ft 330 kts 294°
2026-05-05 00:43 24.77116 -168.37451 11843 ft 330 kts 294°
2026-05-05 00:43 24.78086 -168.39739 11844 ft 330 kts 294°
2026-05-05 00:43 24.79055 -168.42025 11842 ft 330 kts 294°
2026-05-05 00:44 24.80024 -168.44312 11843 ft 330 kts 294°
2026-05-05 00:44 24.80992 -168.46600 11845 ft 330 kts 294°
2026-05-05 00:44 24.81961 -168.48891 11846 ft 330 kts 294°
2026-05-05 00:44 24.82928 -168.51179 11844 ft 330 kts 294°
2026-05-05 00:45 24.83896 -168.53468 11843 ft 330 kts 294°
2026-05-05 00:45 24.84863 -168.55757 11845 ft 330 kts 294°
2026-05-05 00:45 24.85829 -168.58045 11845 ft 330 kts 294°
2026-05-05 00:45 24.86796 -168.60337 11843 ft 330 kts 294°
2026-05-05 00:46 24.87761 -168.62625 11843 ft 329 kts 294°
2026-05-05 00:46 24.88726 -168.64917 11845 ft 330 kts 294°
2026-05-05 00:46 24.89691 -168.67206 11845 ft 330 kts 294°
2026-05-05 00:46 24.90656 -168.69497 11843 ft 330 kts 294°
2026-05-05 00:47 24.91620 -168.71787 11846 ft 330 kts 294°
2026-05-05 00:47 24.92585 -168.74081 11844 ft 330 kts 294°
2026-05-05 00:47 24.93549 -168.76376 11846 ft 330 kts 294°
2026-05-05 00:47 24.94513 -168.78669 11841 ft 330 kts 294°
2026-05-05 00:48 24.95474 -168.80959 11844 ft 330 kts 294°
2026-05-05 00:48 24.96439 -168.83257 11844 ft 330 kts 294°
2026-05-05 00:48 24.97400 -168.85549 11844 ft 330 kts 294°
2026-05-05 00:48 24.98361 -168.87841 11848 ft 330 kts 294°
2026-05-05 00:49 24.99325 -168.90141 11845 ft 330 kts 294°
2026-05-05 00:49 25.00285 -168.92432 11843 ft 330 kts 294°
2026-05-05 00:49 25.01245 -168.94726 11846 ft 330 kts 294°
2026-05-05 00:49 25.02205 -168.97024 11844 ft 330 kts 294°
2026-05-05 00:50 25.03166 -168.99320 11846 ft 330 kts 294°
2026-05-05 00:50 25.04127 -169.01617 11845 ft 330 kts 294°
2026-05-05 00:50 25.05087 -169.03914 11845 ft 330 kts 294°
2026-05-05 00:50 25.06049 -169.06219 11844 ft 330 kts 294°
2026-05-05 00:51 25.07009 -169.08519 11843 ft 330 kts 294°
2026-05-05 00:51 25.07967 -169.10816 11848 ft 330 kts 294°
2026-05-05 00:51 25.08917 -169.13097 11846 ft 332 kts 294°
2026-05-05 00:51 25.09881 -169.15410 11841 ft 331 kts 294°
2026-05-05 00:52 25.10841 -169.17716 11842 ft 331 kts 294°
2026-05-05 00:52 25.11802 -169.20024 11844 ft 331 kts 294°
2026-05-05 00:52 25.12762 -169.22332 11845 ft 330 kts 294°
2026-05-05 00:52 25.13720 -169.24636 11844 ft 330 kts 294°
2026-05-05 00:53 25.14678 -169.26941 11845 ft 331 kts 294°
2026-05-05 00:53 25.15635 -169.29245 11844 ft 330 kts 294°
2026-05-05 00:53 25.16591 -169.31549 11845 ft 330 kts 294°
2026-05-05 00:53 25.17547 -169.33852 11841 ft 330 kts 294°
2026-05-05 00:54 25.18504 -169.36161 11842 ft 330 kts 294°
2026-05-05 00:54 25.19459 -169.38465 11843 ft 330 kts 294°
2026-05-05 00:54 25.20413 -169.40771 11846 ft 330 kts 294°
2026-05-05 00:54 25.21367 -169.43072 11844 ft 330 kts 294°
2026-05-05 00:55 25.22324 -169.45387 11843 ft 330 kts 294°
2026-05-05 00:55 25.23277 -169.47691 11845 ft 330 kts 294°
2026-05-05 00:55 25.24230 -169.49999 11848 ft 330 kts 294°
2026-05-05 00:55 25.25183 -169.52303 11843 ft 330 kts 294°
2026-05-05 00:56 25.26136 -169.54613 11842 ft 330 kts 294°
2026-05-05 00:56 25.27086 -169.56914 11845 ft 330 kts 294°
2026-05-05 00:56 25.28039 -169.59225 11844 ft 330 kts 294°
2026-05-05 00:56 25.28990 -169.61532 11841 ft 330 kts 294°
2026-05-05 00:57 25.29928 -169.63809 11846 ft 330 kts 294°
2026-05-05 00:57 25.30878 -169.66117 11844 ft 330 kts 294°
2026-05-05 00:57 25.31829 -169.68427 11843 ft 330 kts 294°
2026-05-05 00:57 25.32779 -169.70737 11842 ft 330 kts 294°
2026-05-05 00:58 25.33729 -169.73049 11843 ft 330 kts 294°
2026-05-05 00:58 25.34680 -169.75364 11845 ft 330 kts 294°
2026-05-05 00:58 25.35628 -169.77673 11843 ft 330 kts 294°
2026-05-05 00:58 25.36576 -169.79982 11843 ft 330 kts 294°
2026-05-05 00:59 25.37523 -169.82292 11845 ft 330 kts 294°
2026-05-05 00:59 25.38474 -169.84610 11843 ft 330 kts 294°
2026-05-05 00:59 25.39419 -169.86916 11845 ft 330 kts 294°
2026-05-05 00:59 25.40365 -169.89227 11845 ft 330 kts 294°
2026-05-05 01:00 25.41316 -169.91548 11844 ft 330 kts 294°
2026-05-05 01:00 25.42264 -169.93866 11844 ft 330 kts 294°
2026-05-05 01:00 25.43207 -169.96173 11849 ft 330 kts 294°
2026-05-05 01:00 25.44151 -169.98480 11842 ft 330 kts 294°
2026-05-05 01:01 25.45097 -170.00798 11846 ft 330 kts 294°
2026-05-05 01:01 25.46041 -170.03111 11844 ft 330 kts 294°
2026-05-05 01:01 25.46984 -170.05423 11845 ft 330 kts 294°
2026-05-05 01:01 25.47928 -170.07739 11842 ft 330 kts 294°
2026-05-05 01:02 25.48872 -170.10055 11843 ft 330 kts 294°
2026-05-05 01:02 25.49814 -170.12367 11847 ft 330 kts 294°
2026-05-05 01:02 25.50758 -170.14684 11843 ft 330 kts 294°
2026-05-05 01:02 25.51701 -170.17002 11844 ft 330 kts 294°
2026-05-05 01:03 25.52643 -170.19320 11845 ft 330 kts 294°
2026-05-05 01:03 25.53585 -170.21636 11842 ft 330 kts 294°
2026-05-05 01:03 25.54525 -170.23951 11846 ft 330 kts 294°
2026-05-05 01:03 25.55465 -170.26266 11844 ft 330 kts 294°
2026-05-05 01:04 25.56405 -170.28584 11842 ft 330 kts 294°
2026-05-05 01:04 25.58283 -170.33217 11845 ft 330 kts 293°
2026-05-05 01:04 25.59220 -170.35531 11840 ft 330 kts 294°
2026-05-05 01:05 25.60159 -170.37847 11842 ft 330 kts 293°
2026-05-05 01:05 25.61098 -170.40168 11844 ft 330 kts 293°
2026-05-05 01:05 25.62034 -170.42484 11845 ft 330 kts 293°
2026-05-05 01:05 25.62972 -170.44802 11844 ft 330 kts 293°
2026-05-05 01:06 25.63910 -170.47126 11845 ft 330 kts 293°
2026-05-05 01:06 25.64846 -170.49444 11845 ft 330 kts 293°
2026-05-05 01:06 25.65783 -170.51764 11848 ft 330 kts 293°
2026-05-05 01:06 25.66721 -170.54089 11845 ft 330 kts 293°
2026-05-05 01:07 25.67655 -170.56408 11845 ft 330 kts 293°
2026-05-05 01:07 25.68590 -170.58731 11843 ft 330 kts 293°
2026-05-05 01:07 25.69526 -170.61053 11846 ft 330 kts 293°
2026-05-05 01:07 25.70460 -170.63375 11848 ft 330 kts 293°
2026-05-05 01:08 25.71394 -170.65698 11843 ft 330 kts 293°
2026-05-05 01:08 25.72332 -170.68029 11843 ft 330 kts 293°
2026-05-05 01:08 25.73263 -170.70350 11845 ft 330 kts 293°
2026-05-05 01:08 25.74197 -170.72676 11842 ft 330 kts 293°
2026-05-05 01:09 25.75129 -170.74998 11845 ft 330 kts 293°
2026-05-05 01:09 25.76059 -170.77315 11845 ft 330 kts 293°
2026-05-05 01:09 25.76991 -170.79641 11844 ft 330 kts 293°
2026-05-05 01:09 25.77925 -170.81972 11845 ft 330 kts 293°
2026-05-05 01:10 25.78855 -170.84293 11848 ft 330 kts 293°
2026-05-05 01:10 25.79787 -170.86622 11844 ft 330 kts 293°
2026-05-05 01:10 25.80706 -170.88919 11843 ft 330 kts 293°
2026-05-05 01:10 25.81635 -170.91244 11844 ft 330 kts 293°
2026-05-05 01:11 25.82565 -170.93571 11844 ft 330 kts 293°
2026-05-05 01:11 25.83495 -170.95900 11845 ft 330 kts 293°
2026-05-05 01:11 25.84423 -170.98224 11844 ft 329 kts 293°
2026-05-05 01:11 25.85349 -171.00548 11845 ft 330 kts 293°
2026-05-05 01:12 25.86279 -171.02881 11843 ft 330 kts 293°
2026-05-05 01:12 25.87206 -171.05206 11844 ft 330 kts 293°
2026-05-05 01:12 25.88132 -171.07534 11844 ft 330 kts 293°
2026-05-05 01:12 25.89060 -171.09866 11845 ft 330 kts 293°
2026-05-05 01:13 25.89986 -171.12191 11844 ft 330 kts 293°
2026-05-05 01:13 25.90913 -171.14525 11843 ft 330 kts 293°
2026-05-05 01:13 25.91838 -171.16855 11844 ft 330 kts 293°
2026-05-05 01:13 25.92764 -171.19187 11846 ft 330 kts 293°
2026-05-05 01:14 25.93688 -171.21514 11845 ft 330 kts 293°
2026-05-05 01:14 25.94614 -171.23847 11843 ft 330 kts 293°
2026-05-05 01:14 25.95539 -171.26180 11845 ft 330 kts 293°
2026-05-05 01:14 25.96463 -171.28514 11846 ft 330 kts 293°
2026-05-05 01:15 25.97388 -171.30849 11849 ft 330 kts 293°
2026-05-05 01:15 25.98313 -171.33187 11846 ft 331 kts 293°
2026-05-05 01:15 25.99239 -171.35528 11837 ft 331 kts 293°
2026-05-05 01:15 26.00164 -171.37868 11844 ft 330 kts 293°
2026-05-05 01:16 26.01088 -171.40208 11846 ft 330 kts 293°
2026-05-05 01:16 26.02011 -171.42546 11844 ft 331 kts 293°
2026-05-05 01:16 26.02933 -171.44883 11844 ft 330 kts 293°
2026-05-05 01:16 26.03855 -171.47222 11842 ft 330 kts 293°
2026-05-05 01:17 26.04778 -171.49561 11843 ft 330 kts 293°
2026-05-05 01:17 26.05698 -171.51896 11844 ft 330 kts 293°
2026-05-05 01:17 26.06619 -171.54234 11846 ft 330 kts 293°
2026-05-05 01:17 26.07539 -171.56572 11844 ft 330 kts 293°
2026-05-05 01:18 26.08459 -171.58911 11844 ft 330 kts 293°
2026-05-05 01:18 26.09379 -171.61254 11845 ft 330 kts 293°
2026-05-05 01:18 26.10285 -171.63560 11844 ft 330 kts 293°
2026-05-05 01:18 26.11217 -171.65932 11843 ft 330 kts 293°
2026-05-05 01:19 26.12123 -171.68246 11845 ft 330 kts 293°
2026-05-05 01:19 26.13041 -171.70587 11845 ft 330 kts 293°
2026-05-05 01:19 26.13961 -171.72931 11844 ft 330 kts 293°
2026-05-05 01:19 26.14878 -171.75273 11843 ft 330 kts 293°
2026-05-05 01:20 26.15795 -171.77614 11845 ft 330 kts 293°
2026-05-05 01:20 26.16711 -171.79956 11845 ft 330 kts 293°
2026-05-05 01:20 26.17629 -171.82301 11846 ft 330 kts 293°
2026-05-05 01:20 26.18542 -171.84640 11840 ft 330 kts 293°
2026-05-05 01:21 26.19459 -171.86986 11844 ft 330 kts 293°
2026-05-05 01:21 26.20375 -171.89333 11842 ft 330 kts 293°
2026-05-05 01:21 26.21288 -171.91674 11845 ft 330 kts 293°
2026-05-05 01:21 26.22201 -171.94016 11844 ft 330 kts 293°
2026-05-05 01:22 26.23117 -171.96366 11845 ft 330 kts 293°
2026-05-05 01:22 26.24029 -171.98708 11842 ft 330 kts 292°
2026-05-05 01:22 26.24943 -172.01054 11845 ft 330 kts 292°
2026-05-05 01:22 26.25854 -172.03398 11845 ft 330 kts 292°
2026-05-05 01:23 26.26767 -172.05747 11844 ft 330 kts 292°
2026-05-05 01:23 26.27681 -172.08099 11842 ft 330 kts 292°
2026-05-05 01:23 26.28593 -172.10448 11844 ft 330 kts 292°
2026-05-05 01:23 26.29503 -172.12791 11844 ft 330 kts 292°
2026-05-05 01:24 26.30413 -172.15136 11844 ft 330 kts 292°
2026-05-05 01:24 26.31324 -172.17486 11845 ft 330 kts 292°
2026-05-05 01:24 26.32233 -172.19834 11845 ft 330 kts 292°
2026-05-05 01:24 26.33143 -172.22183 11844 ft 330 kts 292°
2026-05-05 01:25 26.33746 -172.23741 11845 ft 330 kts 292°
2026-05-05 01:25 26.34653 -172.26087 11845 ft 330 kts 292°
2026-05-05 01:25 26.35562 -172.28438 11845 ft 330 kts 292°
2026-05-05 01:25 26.36470 -172.30787 11843 ft 330 kts 292°
2026-05-05 01:26 26.37379 -172.33140 11846 ft 330 kts 292°
2026-05-05 01:26 26.38286 -172.35491 11844 ft 330 kts 292°
2026-05-05 01:26 26.39193 -172.37844 11844 ft 330 kts 292°
2026-05-05 01:26 26.40100 -172.40193 11842 ft 330 kts 292°
2026-05-05 01:27 26.41004 -172.42542 11844 ft 330 kts 292°
2026-05-05 01:27 26.41909 -172.44894 11857 ft 330 kts 292°
2026-05-05 01:27 26.42818 -172.47254 11840 ft 332 kts 292°
2026-05-05 01:27 26.43728 -172.49621 11835 ft 331 kts 292°
2026-05-05 01:28 26.44636 -172.51984 11847 ft 331 kts 292°
2026-05-05 01:28 26.45541 -172.54339 11845 ft 330 kts 292°
2026-05-05 01:28 26.46445 -172.56696 11843 ft 330 kts 292°
2026-05-05 01:28 26.47348 -172.59049 11847 ft 330 kts 292°
2026-05-05 01:29 26.48252 -172.61406 11846 ft 330 kts 292°
2026-05-05 01:29 26.49156 -172.63764 11787 ft 332 kts 292°
2026-05-05 01:29 26.50066 -172.66139 11707 ft 333 kts 292°
2026-05-05 01:29 26.50976 -172.68516 11702 ft 332 kts 292°
2026-05-05 01:30 26.51880 -172.70879 11719 ft 331 kts 292°
2026-05-05 01:30 26.52773 -172.73219 11738 ft 333 kts 292°
2026-05-05 01:30 26.53681 -172.75594 11699 ft 333 kts 292°
2026-05-05 01:30 26.54590 -172.77973 11715 ft 332 kts 292°
2026-05-05 01:31 26.55493 -172.80337 11721 ft 331 kts 292°
2026-05-05 01:31 26.56394 -172.82700 11721 ft 330 kts 292°
2026-05-05 01:31 26.57293 -172.85056 11718 ft 330 kts 292°
2026-05-05 01:31 26.58193 -172.87420 11716 ft 330 kts 292°
2026-05-05 01:32 26.59092 -172.89781 11712 ft 330 kts 292°
2026-05-05 01:32 26.59989 -172.92140 11717 ft 330 kts 292°
2026-05-05 01:32 26.60887 -172.94502 11719 ft 330 kts 292°
2026-05-05 01:32 26.61785 -172.96861 11720 ft 330 kts 292°
2026-05-05 01:33 26.62681 -172.99221 11719 ft 330 kts 292°
2026-05-05 01:33 26.63578 -173.01584 11717 ft 330 kts 292°
2026-05-05 01:33 26.64476 -173.03950 11721 ft 330 kts 292°